createdAt,value
2019-04-06T00:03:22.252Z,20.08
2019-04-06T00:08:28.952Z,19.57
2019-04-06T00:13:33.625Z,19.77
2019-04-06T00:18:39.478Z,19.15
2019-04-06T00:23:45.313Z,19.87
2019-04-06T00:28:51.328Z,19.95
2019-04-06T00:33:57.052Z,19.20
2019-04-06T00:39:01.767Z,19.05
2019-04-06T00:44:08.165Z,18.80
2019-04-06T00:49:13.107Z,18.57
2019-04-06T00:54:18.078Z,18.50
2019-04-06T00:59:22.793Z,17.82
2019-04-06T01:04:27.958Z,17.37
2019-04-06T01:09:32.699Z,18.07
2019-04-06T01:14:37.509Z,19.25
2019-04-06T01:19:49.345Z,18.25
2019-04-06T01:24:54.106Z,18.07
2019-04-06T01:29:58.943Z,19.57
2019-04-06T01:35:03.834Z,18.70
2019-04-06T01:40:08.704Z,19.60
2019-04-06T01:45:13.690Z,17.30
2019-04-06T01:50:18.426Z,18.37
2019-04-06T01:55:23.380Z,18.37
2019-04-06T02:00:29.600Z,18.00
2019-04-06T02:05:34.574Z,18.00
2019-04-06T02:10:39.423Z,18.55
2019-04-06T02:15:49.637Z,16.65
2019-04-06T02:20:54.860Z,18.52
2019-04-06T02:25:59.567Z,17.40
2019-04-06T02:31:14.629Z,17.27
2019-04-06T02:36:38.622Z,16.47
2019-04-06T02:41:51.737Z,16.05
2019-04-06T02:46:56.612Z,17.20
2019-04-06T02:52:01.574Z,16.67
2019-04-06T02:57:10.249Z,17.77
2019-04-06T03:02:16.055Z,17.23
2019-04-06T03:07:21.431Z,16.27
2019-04-06T03:12:26.416Z,17.67
2019-04-06T03:17:31.502Z,16.23
2019-04-06T03:22:36.462Z,17.17
2019-04-06T03:27:41.331Z,16.87
2019-04-06T03:32:46.079Z,16.00
2019-04-06T03:37:50.914Z,15.93
2019-04-06T03:42:55.765Z,15.83
2019-04-06T03:48:02.233Z,17.10
2019-04-06T03:53:08.179Z,15.30
2019-04-06T03:58:15.628Z,14.73
2019-04-06T04:03:20.427Z,16.13
2019-04-06T04:08:25.561Z,13.60
2019-04-06T04:13:30.354Z,15.47
2019-04-06T04:18:35.243Z,16.33
2019-04-06T04:23:42.074Z,15.47
2019-04-06T04:28:46.835Z,15.17
2019-04-06T04:33:51.710Z,15.37
2019-04-06T04:38:56.544Z,16.33
2019-04-06T04:44:01.369Z,15.17
2019-04-06T04:49:06.199Z,14.63
2019-04-06T04:54:11.058Z,14.90
2019-04-06T04:59:15.758Z,15.37
2019-04-06T05:04:20.537Z,14.23
2019-04-06T05:09:26.806Z,14.30
2019-04-06T05:15:00.025Z,14.68
2019-04-06T05:20:06.165Z,15.40
2019-04-06T05:25:11.314Z,16.30
2019-04-06T05:30:16.466Z,14.57
2019-04-06T05:35:21.235Z,14.67
2019-04-06T05:40:29.890Z,15.00
2019-04-06T05:45:35.105Z,15.48
2019-04-06T05:50:40.976Z,15.30
2019-04-06T05:55:45.851Z,14.65
2019-04-06T06:00:50.660Z,15.80
2019-04-06T06:05:55.609Z,14.73
2019-04-06T06:11:02.645Z,15.13
2019-04-06T06:16:16.076Z,15.35
2019-04-06T06:21:22.724Z,16.27
2019-04-06T06:26:27.899Z,14.75
2019-04-06T06:31:32.717Z,16.17
2019-04-06T06:36:37.566Z,15.65
2019-04-06T06:41:42.467Z,16.42
2019-04-06T06:46:47.370Z,16.52
2019-04-06T06:51:52.577Z,16.50
2019-04-06T06:56:57.702Z,16.07
2019-04-06T07:02:03.825Z,15.72
2019-04-06T07:07:14.113Z,15.32
2019-04-06T07:12:19.414Z,15.75
2019-04-06T07:17:25.651Z,15.95
2019-04-06T07:22:30.367Z,16.45
2019-04-06T07:27:35.185Z,16.85
2019-04-06T07:32:40.383Z,16.93
2019-04-06T07:37:45.501Z,16.90
2019-04-06T07:42:50.467Z,17.30
2019-04-06T07:47:55.651Z,17.82
2019-04-06T07:53:01.133Z,16.32
2019-04-06T07:58:06.177Z,16.97
2019-04-06T08:03:17.153Z,15.93
2019-04-06T08:08:22.402Z,16.93
2019-04-06T08:13:27.322Z,16.30
2019-04-06T08:18:32.151Z,16.45
2019-04-06T08:23:36.968Z,16.50
2019-04-06T08:28:41.673Z,16.37
2019-04-06T08:33:46.501Z,16.27
2019-04-06T08:38:52.827Z,15.25
2019-04-06T08:43:57.681Z,15.20
2019-04-06T08:49:02.576Z,15.65
2019-04-06T08:54:07.726Z,15.75
2019-04-06T08:59:13.633Z,15.60
2019-04-06T09:04:18.855Z,15.58
2019-04-06T09:09:23.689Z,15.48
2019-04-06T09:14:30.772Z,15.83
2019-04-06T09:19:35.535Z,16.15
2019-04-06T09:24:40.764Z,15.75
2019-04-06T09:29:45.570Z,14.13
2019-04-06T09:34:50.458Z,15.40
2019-04-06T09:39:55.288Z,14.50
2019-04-06T09:45:16.209Z,13.77
2019-04-06T09:50:33.281Z,14.23
2019-04-06T09:55:57.352Z,14.28
2019-04-06T10:01:10.144Z,13.35
2019-04-06T10:06:33.229Z,12.33
2019-04-06T10:12:07.625Z,12.07
2019-04-06T10:17:32.357Z,12.10
2019-04-06T10:22:52.366Z,12.43
2019-04-06T10:28:05.498Z,13.25
2019-04-06T10:33:20.454Z,12.33
2019-04-06T17:44:53.899Z,8.43
2019-04-06T17:50:05.488Z,9.53
2019-04-06T17:55:24.718Z,8.73
2019-04-06T18:00:38.238Z,9.60
2019-04-06T18:05:50.725Z,8.85
2019-04-06T18:11:17.195Z,9.83
2019-04-06T18:16:24.690Z,9.50
2019-04-06T18:21:29.456Z,10.10
2019-04-06T18:26:34.343Z,9.73
2019-04-06T18:31:58.465Z,10.55
2019-04-06T18:37:25.671Z,10.15
2019-04-06T18:42:30.875Z,10.60
2019-04-06T18:47:35.998Z,10.65
2019-04-06T18:52:40.913Z,10.25
2019-04-06T18:57:45.804Z,10.55
2019-04-06T19:02:50.653Z,10.35
2019-04-06T19:07:55.353Z,10.20
2019-04-06T19:13:00.077Z,9.83
2019-04-06T19:18:05.515Z,10.10
2019-04-06T19:23:10.364Z,10.13
2019-04-06T19:28:15.595Z,9.68
2019-04-06T19:33:25.052Z,9.20
2019-04-06T19:38:27.248Z,9.25
2019-04-06T19:43:32.148Z,9.48
2019-04-06T19:48:36.913Z,10.32
2019-04-06T19:53:42.177Z,9.73
2019-04-06T19:58:49.263Z,9.08
2019-04-06T20:03:54.424Z,10.28
2019-04-06T20:08:59.523Z,9.55
2019-04-06T20:14:05.174Z,10.05
2019-04-06T20:19:10.205Z,9.70
2019-04-06T20:24:16.446Z,9.65
2019-04-06T20:29:22.130Z,9.85
2019-04-06T20:34:27.785Z,9.58
2019-04-06T20:39:33.456Z,9.70
2019-04-06T20:44:39.259Z,9.50
2019-04-06T20:49:44.267Z,9.80
2019-04-06T20:54:49.307Z,9.88
2019-04-06T20:59:54.274Z,10.13
2019-04-06T21:04:59.061Z,10.23
2019-04-06T21:10:04.490Z,10.23
2019-04-06T21:15:17.327Z,10.80
2019-04-06T21:20:16.509Z,10.38
2019-04-06T21:25:21.445Z,10.28
2019-04-06T21:30:26.572Z,10.08
2019-04-06T21:35:31.723Z,10.40
2019-04-06T21:40:36.601Z,10.28
2019-04-06T21:45:42.027Z,10.55
2019-04-06T21:50:46.854Z,10.85
2019-04-06T21:56:00.901Z,10.75
2019-04-06T22:00:58.548Z,10.63
2019-04-06T22:06:03.990Z,10.68
2019-04-06T22:11:08.711Z,11.15
2019-04-06T22:16:13.954Z,10.63
2019-04-06T22:21:18.947Z,10.30
2019-04-06T22:26:23.867Z,10.23
2019-04-06T22:31:29.033Z,10.90
2019-04-06T22:36:34.513Z,11.40
2019-04-06T22:41:40.485Z,11.10
2019-04-06T22:46:45.268Z,10.95
2019-04-06T22:51:50.481Z,10.75
2019-04-06T22:56:55.218Z,10.20
2019-04-06T23:02:00.913Z,9.93
2019-04-06T23:07:08.487Z,10.70
2019-04-06T23:12:13.244Z,10.45
2019-04-06T23:17:19.618Z,10.03
2019-04-06T23:22:25.090Z,10.13
2019-04-06T23:27:30.762Z,10.53
2019-04-06T23:32:35.525Z,10.50
2019-04-06T23:37:41.212Z,10.50
2019-04-06T23:42:46.032Z,11.08
2019-04-06T23:47:51.073Z,10.58
2019-04-06T23:52:56.230Z,11.05
2019-04-06T23:58:01.579Z,11.68
